sensor_id;sensor_type;location;lat;lon;timestamp;temperature;humidity
4293;DHT22;2160;51.172;6.808;2022-07-24T04:02:00;21.30;99.90
4293;DHT22;2160;51.172;6.808;2022-07-24T04:04:27;21.30;99.90
4293;DHT22;2160;51.172;6.808;2022-07-24T04:06:54;21.30;99.90
4293;DHT22;2160;51.172;6.808;2022-07-24T04:09:21;21.30;99.90
4293;DHT22;2160;51.172;6.808;2022-07-24T04:11:48;21.30;99.90
4293;DHT22;2160;51.172;6.808;2022-07-24T04:14:15;21.30;99.90
4293;DHT22;2160;51.172;6.808;2022-07-24T04:16:42;21.30;99.90
4293;DHT22;2160;51.172;6.808;2022-07-24T04:19:10;21.30;99.90
4293;DHT22;2160;51.172;6.808;2022-07-24T04:21:37;21.30;99.90
4293;DHT22;2160;51.172;6.808;2022-07-24T04:24:04;21.30;99.90
4293;DHT22;2160;51.172;6.808;2022-07-24T04:26:31;21.40;99.90
4293;DHT22;2160;51.172;6.808;2022-07-24T04:28:58;21.40;99.90
4293;DHT22;2160;51.172;6.808;2022-07-24T04:31:25;21.40;99.90
4293;DHT22;2160;51.172;6.808;2022-07-24T04:33:52;21.40;99.90
4293;DHT22;2160;51.172;6.808;2022-07-24T04:36:20;21.40;99.90
4293;DHT22;2160;51.172;6.808;2022-07-24T04:38:47;21.40;99.90
4293;DHT22;2160;51.172;6.808;2022-07-24T04:41:14;21.50;99.90
4293;DHT22;2160;51.172;6.808;2022-07-24T04:43:43;21.50;99.90
4293;DHT22;2160;51.172;6.808;2022-07-24T04:46:10;21.50;99.90
4293;DHT22;2160;51.172;6.808;2022-07-24T04:48:36;21.50;99.90
4293;DHT22;2160;51.172;6.808;2022-07-24T04:51:03;21.70;99.90
4293;DHT22;2160;51.172;6.808;2022-07-24T04:53:32;21.60;99.90
4293;DHT22;2160;51.172;6.808;2022-07-24T04:55:59;21.70;99.90
4293;DHT22;2160;51.172;6.808;2022-07-24T04:58:26;21.80;99.90
4293;DHT22;2160;51.172;6.808;2022-07-24T05:00:53;21.80;99.90
4293;DHT22;2160;51.172;6.808;2022-07-24T05:03:20;21.80;99.90
4293;DHT22;2160;51.172;6.808;2022-07-24T05:05:47;21.80;99.90
4293;DHT22;2160;51.172;6.808;2022-07-24T05:08:14;21.90;99.90
4293;DHT22;2160;51.172;6.808;2022-07-24T05:10:42;22.00;99.90
4293;DHT22;2160;51.172;6.808;2022-07-24T05:13:09;21.90;99.90
4293;DHT22;2160;51.172;6.808;2022-07-24T05:15:36;22.00;99.90
4293;DHT22;2160;51.172;6.808;2022-07-24T05:18:04;22.00;99.90
4293;DHT22;2160;51.172;6.808;2022-07-24T05:20:30;22.00;99.90
4293;DHT22;2160;51.172;6.808;2022-07-24T05:22:57;22.00;99.90
4293;DHT22;2160;51.172;6.808;2022-07-24T05:25:25;22.00;99.90
4293;DHT22;2160;51.172;6.808;2022-07-24T05:27:53;22.10;99.90
4293;DHT22;2160;51.172;6.808;2022-07-24T05:30:20;22.10;99.90
4293;DHT22;2160;51.172;6.808;2022-07-24T05:32:47;22.10;99.90
4293;DHT22;2160;51.172;6.808;2022-07-24T05:35:14;22.20;99.90
4293;DHT22;2160;51.172;6.808;2022-07-24T05:37:41;22.20;99.90
4293;DHT22;2160;51.172;6.808;2022-07-24T05:40:08;22.20;99.90
4293;DHT22;2160;51.172;6.808;2022-07-24T05:42:35;22.20;99.90
4293;DHT22;2160;51.172;6.808;2022-07-24T05:45:05;22.20;99.90
4293;DHT22;2160;51.172;6.808;2022-07-24T05:47:35;22.00;99.90
4293;DHT22;2160;51.172;6.808;2022-07-24T05:50:03;22.00;99.90
4293;DHT22;2160;51.172;6.808;2022-07-24T05:52:32;22.00;99.90
4293;DHT22;2160;51.172;6.808;2022-07-24T05:54:59;22.00;99.90
4293;DHT22;2160;51.172;6.808;2022-07-24T05:57:25;22.10;99.90
4293;DHT22;2160;51.172;6.808;2022-07-24T05:59:52;22.20;99.90
4293;DHT22;2160;51.172;6.808;2022-07-24T06:02:21;22.40;99.90
4293;DHT22;2160;51.172;6.808;2022-07-24T06:04:48;22.40;99.90
4293;DHT22;2160;51.172;6.808;2022-07-24T06:07:14;22.70;99.90
4293;DHT22;2160;51.172;6.808;2022-07-24T06:09:41;22.70;99.90
4293;DHT22;2160;51.172;6.808;2022-07-24T06:12:09;22.50;99.90
4293;DHT22;2160;51.172;6.808;2022-07-24T06:14:35;22.50;99.90
4293;DHT22;2160;51.172;6.808;2022-07-24T06:17:02;22.60;99.90
4293;DHT22;2160;51.172;6.808;2022-07-24T06:19:31;22.70;99.90
4293;DHT22;2160;51.172;6.808;2022-07-24T06:21:58;22.70;99.90
4293;DHT22;2160;51.172;6.808;2022-07-24T06:24:25;22.90;99.90
4293;DHT22;2160;51.172;6.808;2022-07-24T06:26:51;23.00;99.90
4293;DHT22;2160;51.172;6.808;2022-07-24T06:29:18;23.00;99.90
4293;DHT22;2160;51.172;6.808;2022-07-24T06:31:45;23.10;99.90
4293;DHT22;2160;51.172;6.808;2022-07-24T06:34:12;23.10;99.90
4293;DHT22;2160;51.172;6.808;2022-07-24T06:36:40;23.30;99.90
4293;DHT22;2160;51.172;6.808;2022-07-24T06:39:07;23.40;99.90
4293;DHT22;2160;51.172;6.808;2022-07-24T06:41:34;23.40;99.90
4293;DHT22;2160;51.172;6.808;2022-07-24T06:44:01;23.40;99.90
4293;DHT22;2160;51.172;6.808;2022-07-24T06:46:28;23.40;99.90
4293;DHT22;2160;51.172;6.808;2022-07-24T06:48:55;23.50;99.90
4293;DHT22;2160;51.172;6.808;2022-07-24T06:51:22;23.60;99.90
4293;DHT22;2160;51.172;6.808;2022-07-24T06:53:50;23.70;99.90
4293;DHT22;2160;51.172;6.808;2022-07-24T06:56:17;23.80;99.90
4293;DHT22;2160;51.172;6.808;2022-07-24T06:58:44;23.80;99.90
4293;DHT22;2160;51.172;6.808;2022-07-24T07:01:11;23.80;99.90
4293;DHT22;2160;51.172;6.808;2022-07-24T07:03:38;23.70;99.90
4293;DHT22;2160;51.172;6.808;2022-07-24T07:06:05;23.40;99.90
4293;DHT22;2160;51.172;6.808;2022-07-24T07:08:32;23.30;99.90
4293;DHT22;2160;51.172;6.808;2022-07-24T07:11:01;23.20;99.90
4293;DHT22;2160;51.172;6.808;2022-07-24T07:13:28;23.30;99.90
4293;DHT22;2160;51.172;6.808;2022-07-24T07:15:54;23.60;99.90
4293;DHT22;2160;51.172;6.808;2022-07-24T07:18:21;23.90;99.90
4293;DHT22;2160;51.172;6.808;2022-07-24T07:20:48;24.00;99.90
4293;DHT22;2160;51.172;6.808;2022-07-24T07:23:20;23.90;99.90
4293;DHT22;2160;51.172;6.808;2022-07-24T07:25:47;23.80;99.90
4293;DHT22;2160;51.172;6.808;2022-07-24T07:28:15;23.80;99.90
4293;DHT22;2160;51.172;6.808;2022-07-24T07:30:42;23.90;99.90
4293;DHT22;2160;51.172;6.808;2022-07-24T07:33:09;24.10;99.90
4293;DHT22;2160;51.172;6.808;2022-07-24T07:35:36;24.30;99.90
4293;DHT22;2160;51.172;6.808;2022-07-24T07:38:03;24.50;99.90
4293;DHT22;2160;51.172;6.808;2022-07-24T07:40:31;24.70;99.90
4293;DHT22;2160;51.172;6.808;2022-07-24T07:42:58;24.70;99.90
4293;DHT22;2160;51.172;6.808;2022-07-24T07:45:26;24.60;99.90
4293;DHT22;2160;51.172;6.808;2022-07-24T07:47:53;24.60;99.90
4293;DHT22;2160;51.172;6.808;2022-07-24T07:50:20;24.70;99.90
4293;DHT22;2160;51.172;6.808;2022-07-24T07:52:47;24.80;99.90
4293;DHT22;2160;51.172;6.808;2022-07-24T07:55:14;24.90;99.90
4293;DHT22;2160;51.172;6.808;2022-07-24T07:57:41;25.00;99.90
4293;DHT22;2160;51.172;6.808;2022-07-24T08:00:10;25.10;99.90
4293;DHT22;2160;51.172;6.808;2022-07-24T08:02:39;25.30;99.90
4293;DHT22;2160;51.172;6.808;2022-07-24T08:05:07;25.50;99.90
4293;DHT22;2160;51.172;6.808;2022-07-24T08:07:34;25.60;99.90
4293;DHT22;2160;51.172;6.808;2022-07-24T08:10:01;25.60;99.90
4293;DHT22;2160;51.172;6.808;2022-07-24T08:12:28;25.60;99.90
4293;DHT22;2160;51.172;6.808;2022-07-24T08:14:55;25.70;99.90
4293;DHT22;2160;51.172;6.808;2022-07-24T08:17:22;25.80;99.90
4293;DHT22;2160;51.172;6.808;2022-07-24T08:19:50;25.70;99.90
4293;DHT22;2160;51.172;6.808;2022-07-24T08:22:17;25.80;99.90
4293;DHT22;2160;51.172;6.808;2022-07-24T08:24:44;25.80;99.90
4293;DHT22;2160;51.172;6.808;2022-07-24T08:27:11;25.90;99.90
4293;DHT22;2160;51.172;6.808;2022-07-24T08:29:38;25.90;99.90
4293;DHT22;2160;51.172;6.808;2022-07-24T08:32:06;26.10;99.90
4293;DHT22;2160;51.172;6.808;2022-07-24T08:34:33;26.20;99.90
4293;DHT22;2160;51.172;6.808;2022-07-24T08:37:01;26.20;99.90
4293;DHT22;2160;51.172;6.808;2022-07-24T08:39:28;26.40;99.90
4293;DHT22;2160;51.172;6.808;2022-07-24T08:41:55;26.40;99.90
4293;DHT22;2160;51.172;6.808;2022-07-24T08:44:22;26.50;99.90
4293;DHT22;2160;51.172;6.808;2022-07-24T08:46:50;26.70;99.90
4293;DHT22;2160;51.172;6.808;2022-07-24T08:49:21;26.70;99.90
4293;DHT22;2160;51.172;6.808;2022-07-24T08:51:49;26.60;99.90
4293;DHT22;2160;51.172;6.808;2022-07-24T08:54:17;26.70;99.90
4293;DHT22;2160;51.172;6.808;2022-07-24T08:56:45;26.70;99.90
4293;DHT22;2160;51.172;6.808;2022-07-24T08:59:16;26.90;99.90
4293;DHT22;2160;51.172;6.808;2022-07-24T09:01:44;26.90;99.90
4293;DHT22;2160;51.172;6.808;2022-07-24T09:04:30;27.20;99.90
4293;DHT22;2160;51.172;6.808;2022-07-24T09:06:57;27.10;99.90
4293;DHT22;2160;51.172;6.808;2022-07-24T09:09:26;27.10;99.90
4293;DHT22;2160;51.172;6.808;2022-07-24T09:12:05;27.10;99.90
4293;DHT22;2160;51.172;6.808;2022-07-24T09:14:33;27.30;99.90
4293;DHT22;2160;51.172;6.808;2022-07-24T09:17:04;27.40;99.90
4293;DHT22;2160;51.172;6.808;2022-07-24T09:19:45;27.50;99.90
4293;DHT22;2160;51.172;6.808;2022-07-24T09:22:23;27.60;99.90
4293;DHT22;2160;51.172;6.808;2022-07-24T09:25:04;27.60;99.90
4293;DHT22;2160;51.172;6.808;2022-07-24T09:27:32;27.80;99.90
4293;DHT22;2160;51.172;6.808;2022-07-24T09:29:59;28.00;99.90
4293;DHT22;2160;51.172;6.808;2022-07-24T09:32:26;28.20;99.90
4293;DHT22;2160;51.172;6.808;2022-07-24T09:34:54;28.10;99.90
4293;DHT22;2160;51.172;6.808;2022-07-24T09:37:21;28.00;99.90
4293;DHT22;2160;51.172;6.808;2022-07-24T09:39:49;28.00;99.90
4293;DHT22;2160;51.172;6.808;2022-07-24T09:42:18;28.20;99.90
4293;DHT22;2160;51.172;6.808;2022-07-24T09:44:45;28.30;99.90
4293;DHT22;2160;51.172;6.808;2022-07-24T09:47:12;28.50;99.90
4293;DHT22;2160;51.172;6.808;2022-07-24T09:49:43;28.50;99.90
4293;DHT22;2160;51.172;6.808;2022-07-24T09:52:12;28.40;99.90
4293;DHT22;2160;51.172;6.808;2022-07-24T09:54:41;28.50;99.90
4293;DHT22;2160;51.172;6.808;2022-07-24T09:57:18;28.60;98.50
4293;DHT22;2160;51.172;6.808;2022-07-24T09:59:47;28.60;98.20
4293;DHT22;2160;51.172;6.808;2022-07-24T10:02:15;28.60;99.00
4293;DHT22;2160;51.172;6.808;2022-07-24T10:04:44;28.60;98.50
4293;DHT22;2160;51.172;6.808;2022-07-24T10:07:12;28.60;98.30
4293;DHT22;2160;51.172;6.808;2022-07-24T10:09:41;28.60;98.80
4293;DHT22;2160;51.172;6.808;2022-07-24T10:12:12;28.70;98.40
4293;DHT22;2160;51.172;6.808;2022-07-24T10:14:42;29.10;98.60
4293;DHT22;2160;51.172;6.808;2022-07-24T10:17:11;29.20;97.60
4293;DHT22;2160;51.172;6.808;2022-07-24T10:19:41;29.40;97.00
4293;DHT22;2160;51.172;6.808;2022-07-24T10:22:12;29.30;97.90
4293;DHT22;2160;51.172;6.808;2022-07-24T10:24:57;29.40;96.70
4293;DHT22;2160;51.172;6.808;2022-07-24T10:27:30;29.70;95.90
4293;DHT22;2160;51.172;6.808;2022-07-24T10:30:01;29.50;97.50
4293;DHT22;2160;51.172;6.808;2022-07-24T10:32:31;29.50;95.60
4293;DHT22;2160;51.172;6.808;2022-07-24T10:35:08;29.60;96.00
4293;DHT22;2160;51.172;6.808;2022-07-24T10:37:42;29.80;96.30
4293;DHT22;2160;51.172;6.808;2022-07-24T10:40:18;29.90;95.50
4293;DHT22;2160;51.172;6.808;2022-07-24T10:43:12;30.30;95.80
4293;DHT22;2160;51.172;6.808;2022-07-24T10:45:42;30.30;95.60
4293;DHT22;2160;51.172;6.808;2022-07-24T10:48:31;30.30;94.40
4293;DHT22;2160;51.172;6.808;2022-07-24T10:51:04;30.40;95.40
4293;DHT22;2160;51.172;6.808;2022-07-24T10:53:50;30.40;93.80
4293;DHT22;2160;51.172;6.808;2022-07-24T10:56:19;30.50;94.10
4293;DHT22;2160;51.172;6.808;2022-07-24T10:58:52;30.60;92.90
4293;DHT22;2160;51.172;6.808;2022-07-24T11:01:35;30.80;93.20
4293;DHT22;2160;51.172;6.808;2022-07-24T11:06:51;31.20;91.70
4293;DHT22;2160;51.172;6.808;2022-07-24T11:09:19;31.30;91.50
4293;DHT22;2160;51.172;6.808;2022-07-24T11:12:05;31.40;90.40
4293;DHT22;2160;51.172;6.808;2022-07-24T11:14:49;31.80;91.50
4293;DHT22;2160;51.172;6.808;2022-07-24T11:17:39;32.00;86.90
4293;DHT22;2160;51.172;6.808;2022-07-24T11:20:08;31.80;84.50
4293;DHT22;2160;51.172;6.808;2022-07-24T11:22:44;31.90;86.70
4293;DHT22;2160;51.172;6.808;2022-07-24T11:25:18;32.20;88.70
4293;DHT22;2160;51.172;6.808;2022-07-24T11:27:51;32.50;88.20
4293;DHT22;2160;51.172;6.808;2022-07-24T11:30:19;32.60;86.20
4293;DHT22;2160;51.172;6.808;2022-07-24T11:32:48;32.60;83.50
4293;DHT22;2160;51.172;6.808;2022-07-24T11:35:15;32.60;79.70
4293;DHT22;2160;51.172;6.808;2022-07-24T11:37:43;32.50;76.30
4293;DHT22;2160;51.172;6.808;2022-07-24T11:40:16;32.50;78.30
4293;DHT22;2160;51.172;6.808;2022-07-24T11:42:43;32.90;78.40
4293;DHT22;2160;51.172;6.808;2022-07-24T11:45:11;33.10;75.70
4293;DHT22;2160;51.172;6.808;2022-07-24T11:47:38;33.20;73.20
4293;DHT22;2160;51.172;6.808;2022-07-24T11:50:07;33.10;76.10
4293;DHT22;2160;51.172;6.808;2022-07-24T11:52:37;32.90;74.80
4293;DHT22;2160;51.172;6.808;2022-07-24T11:55:06;32.70;75.60
4293;DHT22;2160;51.172;6.808;2022-07-24T11:57:35;32.90;74.60
4293;DHT22;2160;51.172;6.808;2022-07-24T12:00:05;32.70;73.10
4293;DHT22;2160;51.172;6.808;2022-07-24T12:02:42;32.50;67.80
4293;DHT22;2160;51.172;6.808;2022-07-24T12:05:10;32.40;67.00
4293;DHT22;2160;51.172;6.808;2022-07-24T12:07:37;32.20;65.80
4293;DHT22;2160;51.172;6.808;2022-07-24T12:10:05;32.20;66.00
4293;DHT22;2160;51.172;6.808;2022-07-24T12:12:33;32.30;67.20
4293;DHT22;2160;51.172;6.808;2022-07-24T12:15:04;32.40;68.50
4293;DHT22;2160;51.172;6.808;2022-07-24T12:17:33;32.50;67.80
4293;DHT22;2160;51.172;6.808;2022-07-24T12:20:01;32.60;68.60
4293;DHT22;2160;51.172;6.808;2022-07-24T12:22:33;32.90;67.50
4293;DHT22;2160;51.172;6.808;2022-07-24T12:25:00;32.90;69.50
4293;DHT22;2160;51.172;6.808;2022-07-24T12:27:36;32.90;67.30
4293;DHT22;2160;51.172;6.808;2022-07-24T12:30:15;32.80;67.10
4293;DHT22;2160;51.172;6.808;2022-07-24T12:32:55;32.80;63.40
4293;DHT22;2160;51.172;6.808;2022-07-24T12:35:23;32.70;63.30
4293;DHT22;2160;51.172;6.808;2022-07-24T12:37:52;32.80;64.80
4293;DHT22;2160;51.172;6.808;2022-07-24T12:40:25;32.80;68.00
4293;DHT22;2160;51.172;6.808;2022-07-24T12:43:03;32.90;66.80
4293;DHT22;2160;51.172;6.808;2022-07-24T12:45:30;33.10;65.40
4293;DHT22;2160;51.172;6.808;2022-07-24T12:48:09;32.90;67.30
4293;DHT22;2160;51.172;6.808;2022-07-24T12:50:36;32.80;67.10
4293;DHT22;2160;51.172;6.808;2022-07-24T12:53:05;32.70;68.60
4293;DHT22;2160;51.172;6.808;2022-07-24T12:55:33;33.10;65.30
4293;DHT22;2160;51.172;6.808;2022-07-24T12:58:02;33.30;67.10
4293;DHT22;2160;51.172;6.808;2022-07-24T13:00:30;33.30;62.10
4293;DHT22;2160;51.172;6.808;2022-07-24T13:02:57;33.40;65.50
4293;DHT22;2160;51.172;6.808;2022-07-24T13:05:38;33.50;64.50
4293;DHT22;2160;51.172;6.808;2022-07-24T13:08:07;33.60;65.40
4293;DHT22;2160;51.172;6.808;2022-07-24T13:10:34;33.70;64.50
4293;DHT22;2160;51.172;6.808;2022-07-24T13:13:01;33.80;61.40
4293;DHT22;2160;51.172;6.808;2022-07-24T13:15:28;34.10;64.20
4293;DHT22;2160;51.172;6.808;2022-07-24T13:17:55;34.20;61.60
4293;DHT22;2160;51.172;6.808;2022-07-24T13:20:22;34.40;59.90
4293;DHT22;2160;51.172;6.808;2022-07-24T13:22:49;34.70;59.90
4293;DHT22;2160;51.172;6.808;2022-07-24T13:25:18;34.50;59.60
4293;DHT22;2160;51.172;6.808;2022-07-24T13:27:45;34.60;60.30
4293;DHT22;2160;51.172;6.808;2022-07-24T13:30:13;34.50;62.40
4293;DHT22;2160;51.172;6.808;2022-07-24T13:32:40;34.20;60.40
4293;DHT22;2160;51.172;6.808;2022-07-24T13:35:07;34.10;61.60
4293;DHT22;2160;51.172;6.808;2022-07-24T13:37:35;34.10;62.30
4293;DHT22;2160;51.172;6.808;2022-07-24T13:40:02;34.20;60.70
4293;DHT22;2160;51.172;6.808;2022-07-24T13:42:34;34.00;64.80
4293;DHT22;2160;51.172;6.808;2022-07-24T13:45:01;34.10;59.70
4293;DHT22;2160;51.172;6.808;2022-07-24T13:47:28;34.20;61.40
4293;DHT22;2160;51.172;6.808;2022-07-24T13:49:55;34.50;59.30
4293;DHT22;2160;51.172;6.808;2022-07-24T13:52:22;34.60;59.00
4293;DHT22;2160;51.172;6.808;2022-07-24T13:54:49;34.80;58.20
4293;DHT22;2160;51.172;6.808;2022-07-24T13:57:16;34.80;57.90
4293;DHT22;2160;51.172;6.808;2022-07-24T13:59:44;34.60;58.10
4293;DHT22;2160;51.172;6.808;2022-07-24T14:02:11;34.50;57.70
4293;DHT22;2160;51.172;6.808;2022-07-24T14:04:40;34.70;57.30
4293;DHT22;2160;51.172;6.808;2022-07-24T14:07:09;34.70;58.00
4293;DHT22;2160;51.172;6.808;2022-07-24T14:09:36;34.90;56.90
4293;DHT22;2160;51.172;6.808;2022-07-24T14:12:03;35.00;55.80
4293;DHT22;2160;51.172;6.808;2022-07-24T14:14:30;34.80;57.00
4293;DHT22;2160;51.172;6.808;2022-07-24T14:16:59;34.80;56.30
4293;DHT22;2160;51.172;6.808;2022-07-24T14:19:26;35.00;56.60
4293;DHT22;2160;51.172;6.808;2022-07-24T14:21:53;35.30;55.90
4293;DHT22;2160;51.172;6.808;2022-07-24T14:24:20;35.50;54.90
4293;DHT22;2160;51.172;6.808;2022-07-24T14:26:47;35.70;55.60
4293;DHT22;2160;51.172;6.808;2022-07-24T14:29:15;35.80;53.30
4293;DHT22;2160;51.172;6.808;2022-07-24T14:31:42;35.20;56.20
4293;DHT22;2160;51.172;6.808;2022-07-24T14:34:10;34.70;56.40
4293;DHT22;2160;51.172;6.808;2022-07-24T14:36:37;34.80;54.20
4293;DHT22;2160;51.172;6.808;2022-07-24T14:39:04;34.90;54.00
4293;DHT22;2160;51.172;6.808;2022-07-24T14:41:32;35.10;54.50
4293;DHT22;2160;51.172;6.808;2022-07-24T14:43:59;35.30;55.00
4293;DHT22;2160;51.172;6.808;2022-07-24T14:46:26;35.60;54.30
4293;DHT22;2160;51.172;6.808;2022-07-24T14:48:52;35.40;53.60
4293;DHT22;2160;51.172;6.808;2022-07-24T14:51:21;35.30;52.30
4293;DHT22;2160;51.172;6.808;2022-07-24T14:53:48;35.20;54.00
4293;DHT22;2160;51.172;6.808;2022-07-24T14:56:15;35.20;53.30
4293;DHT22;2160;51.172;6.808;2022-07-24T14:58:42;35.00;55.00
4293;DHT22;2160;51.172;6.808;2022-07-24T15:01:09;35.00;53.10
4293;DHT22;2160;51.172;6.808;2022-07-24T15:03:36;35.30;53.20
4293;DHT22;2160;51.172;6.808;2022-07-24T15:06:03;34.70;53.70
4293;DHT22;2160;51.172;6.808;2022-07-24T15:08:31;34.60;54.80
4293;DHT22;2160;51.172;6.808;2022-07-24T15:10:58;34.60;54.70
4293;DHT22;2160;51.172;6.808;2022-07-24T15:13:25;35.10;53.40
4293;DHT22;2160;51.172;6.808;2022-07-24T15:15:52;35.60;52.40
4293;DHT22;2160;51.172;6.808;2022-07-24T15:18:19;35.90;51.90
4293;DHT22;2160;51.172;6.808;2022-07-24T15:20:46;36.10;50.80
4293;DHT22;2160;51.172;6.808;2022-07-24T15:23:13;36.10;51.10
4293;DHT22;2160;51.172;6.808;2022-07-24T15:25:42;36.10;50.80
4293;DHT22;2160;51.172;6.808;2022-07-24T15:28:08;36.00;50.40
4293;DHT22;2160;51.172;6.808;2022-07-24T15:30:35;35.60;51.60
4293;DHT22;2160;51.172;6.808;2022-07-24T15:33:02;35.40;50.20
4293;DHT22;2160;51.172;6.808;2022-07-24T15:35:29;35.40;48.90
4293;DHT22;2160;51.172;6.808;2022-07-24T15:37:56;35.70;50.40
4293;DHT22;2160;51.172;6.808;2022-07-24T15:40:24;36.10;51.30
4293;DHT22;2160;51.172;6.808;2022-07-24T15:42:53;36.30;49.20
4293;DHT22;2160;51.172;6.808;2022-07-24T15:45:21;36.50;48.50
4293;DHT22;2160;51.172;6.808;2022-07-24T15:47:48;36.40;49.40
4293;DHT22;2160;51.172;6.808;2022-07-24T15:50:15;36.20;50.30
4293;DHT22;2160;51.172;6.808;2022-07-24T15:52:42;36.00;48.60
4293;DHT22;2160;51.172;6.808;2022-07-24T15:55:09;36.10;50.10
4293;DHT22;2160;51.172;6.808;2022-07-24T15:57:37;35.70;51.00
4293;DHT22;2160;51.172;6.808;2022-07-24T16:00:07;35.30;50.90
4293;DHT22;2160;51.172;6.808;2022-07-24T16:02:35;35.70;50.70
4293;DHT22;2160;51.172;6.808;2022-07-24T16:05:04;36.20;50.20
4293;DHT22;2160;51.172;6.808;2022-07-24T16:07:31;36.50;50.70
4293;DHT22;2160;51.172;6.808;2022-07-24T16:09:58;36.10;47.90
4293;DHT22;2160;51.172;6.808;2022-07-24T16:12:25;36.30;49.20
4293;DHT22;2160;51.172;6.808;2022-07-24T16:14:52;36.00;48.50
4293;DHT22;2160;51.172;6.808;2022-07-24T16:17:20;36.30;47.90
4293;DHT22;2160;51.172;6.808;2022-07-24T16:19:48;36.20;46.60
4293;DHT22;2160;51.172;6.808;2022-07-24T16:22:15;36.20;50.00
4293;DHT22;2160;51.172;6.808;2022-07-24T16:24:42;35.90;48.70
4293;DHT22;2160;51.172;6.808;2022-07-24T16:27:09;35.40;49.70
4293;DHT22;2160;51.172;6.808;2022-07-24T16:29:36;35.30;48.20
4293;DHT22;2160;51.172;6.808;2022-07-24T16:32:04;35.40;49.70
4293;DHT22;2160;51.172;6.808;2022-07-24T16:34:33;34.90;48.00
4293;DHT22;2160;51.172;6.808;2022-07-24T16:37:00;35.20;48.70
4293;DHT22;2160;51.172;6.808;2022-07-24T16:39:27;35.50;50.20
4293;DHT22;2160;51.172;6.808;2022-07-24T16:41:54;35.20;50.90
4293;DHT22;2160;51.172;6.808;2022-07-24T16:44:21;35.00;50.00
4293;DHT22;2160;51.172;6.808;2022-07-24T16:46:48;34.40;51.10
4293;DHT22;2160;51.172;6.808;2022-07-24T16:49:14;34.60;49.30
4293;DHT22;2160;51.172;6.808;2022-07-24T16:51:43;34.10;50.60
4293;DHT22;2160;51.172;6.808;2022-07-24T16:54:11;34.20;52.10
4293;DHT22;2160;51.172;6.808;2022-07-24T16:56:38;33.90;53.50
4293;DHT22;2160;51.172;6.808;2022-07-24T16:59:05;33.40;50.70
4293;DHT22;2160;51.172;6.808;2022-07-24T17:01:32;33.20;52.00
4293;DHT22;2160;51.172;6.808;2022-07-24T17:04:00;33.60;50.30
4293;DHT22;2160;51.172;6.808;2022-07-24T17:06:27;33.70;50.60
4293;DHT22;2160;51.172;6.808;2022-07-24T17:08:55;33.70;52.40
4293;DHT22;2160;51.172;6.808;2022-07-24T17:11:23;33.90;51.40
4293;DHT22;2160;51.172;6.808;2022-07-24T17:13:50;33.60;53.80
4293;DHT22;2160;51.172;6.808;2022-07-24T17:16:17;33.60;51.70
4293;DHT22;2160;51.172;6.808;2022-07-24T17:18:44;33.80;53.80
4293;DHT22;2160;51.172;6.808;2022-07-24T17:21:11;33.90;53.70
4293;DHT22;2160;51.172;6.808;2022-07-24T17:23:38;33.80;53.50
4293;DHT22;2160;51.172;6.808;2022-07-24T17:26:06;33.50;53.20
4293;DHT22;2160;51.172;6.808;2022-07-24T17:28:33;33.60;54.80
4293;DHT22;2160;51.172;6.808;2022-07-24T17:31:00;33.90;55.70
4293;DHT22;2160;51.172;6.808;2022-07-24T17:33:28;34.00;54.60
4293;DHT22;2160;51.172;6.808;2022-07-24T17:35:55;34.00;52.60
4293;DHT22;2160;51.172;6.808;2022-07-24T17:38:22;34.00;52.20
4293;DHT22;2160;51.172;6.808;2022-07-24T17:40:49;34.20;53.80
4293;DHT22;2160;51.172;6.808;2022-07-24T17:43:17;34.50;54.60
4293;DHT22;2160;51.172;6.808;2022-07-24T17:45:44;34.90;53.60
4293;DHT22;2160;51.172;6.808;2022-07-24T17:48:11;35.30;53.60
4293;DHT22;2160;51.172;6.808;2022-07-24T17:50:38;35.50;53.00
4293;DHT22;2160;51.172;6.808;2022-07-24T17:53:05;35.60;53.70
4293;DHT22;2160;51.172;6.808;2022-07-24T17:55:32;35.70;53.80
4293;DHT22;2160;51.172;6.808;2022-07-24T17:57:59;35.70;53.10
4293;DHT22;2160;51.172;6.808;2022-07-24T18:00:28;35.70;52.90
4293;DHT22;2160;51.172;6.808;2022-07-24T18:02:55;35.60;52.00
4293;DHT22;2160;51.172;6.808;2022-07-24T18:05:22;35.30;53.90
4293;DHT22;2160;51.172;6.808;2022-07-24T18:07:49;35.20;55.90
4293;DHT22;2160;51.172;6.808;2022-07-24T18:10:16;35.00;55.00
4293;DHT22;2160;51.172;6.808;2022-07-24T18:12:43;34.80;55.30
4293;DHT22;2160;51.172;6.808;2022-07-24T18:15:10;34.70;56.30
4293;DHT22;2160;51.172;6.808;2022-07-24T18:17:39;34.70;57.20
4293;DHT22;2160;51.172;6.808;2022-07-24T18:20:07;34.60;56.40
4293;DHT22;2160;51.172;6.808;2022-07-24T18:22:35;34.40;56.90
4293;DHT22;2160;51.172;6.808;2022-07-24T18:25:02;34.40;56.60
4293;DHT22;2160;51.172;6.808;2022-07-24T18:27:29;34.30;54.10
4293;DHT22;2160;51.172;6.808;2022-07-24T18:29:56;34.10;53.40
4293;DHT22;2160;51.172;6.808;2022-07-24T18:32:23;34.00;53.00
4293;DHT22;2160;51.172;6.808;2022-07-24T18:34:51;33.90;56.60
4293;DHT22;2160;51.172;6.808;2022-07-24T18:37:18;33.90;55.30
4293;DHT22;2160;51.172;6.808;2022-07-24T18:39:45;33.80;58.00
4293;DHT22;2160;51.172;6.808;2022-07-24T18:42:12;33.70;60.40
4293;DHT22;2160;51.172;6.808;2022-07-24T18:44:39;33.60;61.50
4293;DHT22;2160;51.172;6.808;2022-07-24T18:47:06;33.60;61.80
4293;DHT22;2160;51.172;6.808;2022-07-24T18:49:34;33.50;62.60
4293;DHT22;2160;51.172;6.808;2022-07-24T18:52:03;33.40;64.50
4293;DHT22;2160;51.172;6.808;2022-07-24T18:54:30;33.30;64.40
4293;DHT22;2160;51.172;6.808;2022-07-24T18:56:57;33.20;63.80
4293;DHT22;2160;51.172;6.808;2022-07-24T18:59:24;33.10;64.30
4293;DHT22;2160;51.172;6.808;2022-07-24T19:01:51;33.00;65.20
4293;DHT22;2160;51.172;6.808;2022-07-24T19:04:18;33.00;65.50
4293;DHT22;2160;51.172;6.808;2022-07-24T19:06:45;32.80;65.50
4293;DHT22;2160;51.172;6.808;2022-07-24T19:09:13;32.80;66.40
4293;DHT22;2160;51.172;6.808;2022-07-24T19:11:40;32.70;66.80
4293;DHT22;2160;51.172;6.808;2022-07-24T19:14:07;32.60;67.00
4293;DHT22;2160;51.172;6.808;2022-07-24T19:16:34;32.50;66.70
4293;DHT22;2160;51.172;6.808;2022-07-24T19:19:01;32.30;66.80
4293;DHT22;2160;51.172;6.808;2022-07-24T19:21:28;32.30;67.40
4293;DHT22;2160;51.172;6.808;2022-07-24T19:23:55;32.10;68.10
4293;DHT22;2160;51.172;6.808;2022-07-24T19:26:23;32.10;68.20
4293;DHT22;2160;51.172;6.808;2022-07-24T19:28:50;32.10;67.50
4293;DHT22;2160;51.172;6.808;2022-07-24T19:31:17;32.00;68.70
4293;DHT22;2160;51.172;6.808;2022-07-24T19:33:43;31.90;68.70
4293;DHT22;2160;51.172;6.808;2022-07-24T19:36:10;31.80;69.10
4293;DHT22;2160;51.172;6.808;2022-07-24T19:38:37;31.60;69.80
4293;DHT22;2160;51.172;6.808;2022-07-24T19:41:06;31.50;69.80
4293;DHT22;2160;51.172;6.808;2022-07-24T19:43:34;31.50;70.50
4293;DHT22;2160;51.172;6.808;2022-07-24T19:46:01;31.30;70.90
4293;DHT22;2160;51.172;6.808;2022-07-24T19:48:28;31.20;71.30
4293;DHT22;2160;51.172;6.808;2022-07-24T19:50:55;31.20;72.00
4293;DHT22;2160;51.172;6.808;2022-07-24T19:53:22;31.10;73.00
4293;DHT22;2160;51.172;6.808;2022-07-24T19:55:49;31.00;73.70
4293;DHT22;2160;51.172;6.808;2022-07-24T19:58:16;30.80;74.20
4293;DHT22;2160;51.172;6.808;2022-07-24T20:00:44;30.80;75.30
4293;DHT22;2160;51.172;6.808;2022-07-24T20:03:11;30.80;76.60
4293;DHT22;2160;51.172;6.808;2022-07-24T20:05:38;30.60;78.00
4293;DHT22;2160;51.172;6.808;2022-07-24T20:08:06;30.60;79.20
4293;DHT22;2160;51.172;6.808;2022-07-24T20:10:33;30.40;79.60
4293;DHT22;2160;51.172;6.808;2022-07-24T20:13:00;30.30;80.00